CDT,Max TemperatureF,Mean TemperatureF,Min TemperatureF,Max Dew PointF,MeanDew PointF,Min DewpointF,Max Humidity, Mean Humidity, Min Humidity, Max Sea Level PressureIn, Mean Sea Level PressureIn, Min Sea Level PressureIn, Max VisibilityMiles, Mean VisibilityMiles, Min VisibilityMiles, Max Wind SpeedMPH, Mean Wind SpeedMPH, Max Gust SpeedMPH,PrecipitationIn, CloudCover, Events, WindDirDegrees
2013-3-1,40,31,22,29,25,22,93,83,60,30.39,30.31,30.23,10,7,2,13,5,,T,4,Snow,288
2013-3-2,53,36,19,37,29,19,96,76,54,30.35,30.22,30.06,10,8,4,13,5,,0.00,2,,262
2013-3-3,54,42,29,38,33,28,89,73,51,30.04,29.78,29.62,10,10,10,13,7,,0.00,0,,222
2013-3-4,47,36,25,32,24,9,89,60,40,30.26,29.90,29.63,10,10,2,30,16,45,T,4,,326
2013-3-5,42,32,21,16,13,10,72,52,27,30.42,30.36,30.21,10,10,10,22,14,25,0.00,0,,330
2013-3-6,46,33,19,27,21,14,82,67,45,30.40,30.24,30.05,10,10,10,22,11,29,0.00,0,,121
2013-3-7,50,37,24,30,26,21,88,72,44,30.09,30.05,30.00,10,9,8,10,8,,0.00,0,,83
2013-3-8,57,43,29,50,37,26,89,76,53,30.05,29.88,29.68,10,8,4,13,8,,T,3,Rain-Thunderstorm,86
2013-3-9,55,44,32,52,41,26,100,85,73,29.92,29.63,29.52,10,7,1,31,13,47,0.04,6,Snow,216
2013-3-10,33,26,19,28,19,12,93,74,45,30.17,30.05,29.88,10,5,0,33,24,45,0.01,5,Fog-Snow,341
2013-3-11,54,35,15,34,21,11,87,64,28,30.12,30.03,29.94,10,10,10,18,8,,0.00,2,,287
2013-3-12,48,36,24,27,16,6,85,49,20,30.38,30.28,30.13,10,10,10,29,13,34,0.00,1,,319
2013-3-13,66,43,20,30,22,14,72,48,24,30.38,30.27,30.15,10,10,10,20,6,,0.00,1,,196
2013-3-14,76,56,36,35,30,25,73,43,16,30.20,30.12,30.02,10,10,10,14,8,17,0.00,0,,267
2013-3-15,83,60,37,36,30,20,73,42,10,30.00,29.83,29.69,10,10,10,20,11,25,0.00,0,,285
2013-3-16,48,39,30,34,29,23,93,72,42,30.08,30.02,29.86,10,8,2,17,11,,0.11,4,Rain-Snow,69
2013-3-17,45,37,29,36,31,27,100,94,76,30.04,29.83,29.61,8,3,0,20,10,26,0.03,7,Fog-Rain,122
2013-3-18,52,38,23,34,21,11,100,58,22,30.05,29.95,29.79,10,9,1,25,12,36,0.00,3,,311
2013-3-19,53,38,22,20,16,12,74,46,22,30.38,30.19,30.06,10,10,10,20,7,20,0.00,2,,334
2013-3-20,51,33,15,19,14,8,81,50,25,30.45,30.26,29.94,10,10,10,18,8,26,0.00,1,,165
2013-3-21,50,38,26,30,21,16,93,56,32,29.93,29.82,29.68,10,8,1,20,14,25,0.01,4,Snow,115
2013-3-22,51,37,23,31,28,22,96,77,36,30.00,29.90,29.82,10,7,2,17,10,24,0.02,6,Snow,83
2013-3-23,33,28,23,31,26,16,100,88,71,30.25,30.02,29.92,10,2,0,25,14,32,0.04,8,Fog-Snow,34
2013-3-24,33,22,10,22,14,6,84,71,56,30.34,30.26,30.12,10,10,6,22,11,30,T,2,Snow,304
2013-3-25,35,24,13,15,12,7,80,63,42,30.44,30.40,30.36,10,10,10,20,12,31,0.00,1,,306
2013-3-26,50,30,9,27,18,6,88,65,39,30.42,30.27,30.11,10,10,6,16,7,32,0.00,1,,187
2013-3-27,59,44,28,30,27,24,85,58,31,30.19,30.13,30.07,10,10,8,9,6,,0.00,2,,101
2013-3-28,67,46,25,32,29,22,89,56,27,30.20,30.14,30.05,10,9,5,18,5,24,0.00,0,,161
2013-3-29,72,52,32,46,37,29,85,58,32,30.17,30.06,29.94,10,10,8,22,8,29,T,1,,186
2013-3-30,70,55,40,45,38,31,89,60,26,30.11,29.99,29.92,10,10,9,20,9,22,0.03,2,Rain,324
2013-3-31,71,52,32,37,32,25,92,57,20,30.14,30.03,29.86,10,10,10,33,11,45,0.00,0,,277